Flight Track Log - Related Links

Times and Time Zones

All times are in EDT time to prevent confusion due to time zone crossing. See the TAM3702 flight status page for this flight to view local times or setup timezone preferences in your user account.

Time Position Orientation Groundspeed Altitude Reporting Facility
EDT Latitude Longitude Course Direction KTS MPH feet Rate Location/Type
Thu 06:34:00 AM -21.5347 -47.0068 351° North  Level Estimated
Thu 06:35:00 AM -21.4475 -47.0213 351° North  Level Estimated
Thu 06:36:00 AM -21.3604 -47.0357 351° North  Level Estimated
Thu 06:37:00 AM -21.2732 -47.0500 351° North  Level Estimated
Thu 06:38:00 AM -21.1860 -47.0644 351° North  Level Estimated
Thu 06:39:00 AM -21.0988 -47.0788 351° North  Level Estimated
Thu 06:40:00 AM -21.0116 -47.0931 351° North  Level Estimated
Thu 06:41:00 AM -20.9244 -47.1074 351° North  Level Estimated
Thu 06:42:00 AM -20.8372 -47.1217 351° North  Level Estimated
Thu 06:43:00 AM -20.7500 -47.1360 351° North  Level Estimated
Thu 06:44:00 AM -20.6628 -47.1503 351° North  Level Estimated
Thu 06:45:00 AM -20.5757 -47.1645 351° North  Level Estimated
Thu 06:46:00 AM -20.4885 -47.1787 351° North  Level Estimated
Thu 06:47:00 AM -20.4013 -47.1930 351° North  Level Estimated
Thu 06:48:00 AM -20.3141 -47.2072 351° North  Level Estimated
Thu 06:49:00 AM -20.2269 -47.2214 351° North  Level Estimated
Thu 06:50:00 AM -20.1397 -47.2355 351° North  Level Estimated
Thu 06:51:00 AM -20.0525 -47.2497 351° North  Level Estimated
Thu 06:52:00 AM -19.9653 -47.2638 351° North  Level Estimated
Thu 06:53:00 AM -19.8781 -47.2779 351° North  Level Estimated
Thu 06:54:00 AM -19.7909 -47.2920 351° North  Level Estimated
Thu 06:55:00 AM -19.7036 -47.3061 351° North  Level Estimated
Thu 06:56:00 AM -19.6164 -47.3202 351° North  Level Estimated
Thu 06:57:00 AM -19.5292 -47.3343 351° North  Level Estimated
Thu 06:58:00 AM -19.4420 -47.3483 351° North  Level Estimated
Thu 06:59:00 AM -19.3548 -47.3624 351° North  Level Estimated
Thu 07:00:00 AM -19.2676 -47.3764 351° North  Level Estimated
Thu 07:01:00 AM -19.1804 -47.3904 351° North  Level Estimated
Thu 07:02:00 AM -19.0932 -47.4044 351° North  Level Estimated
Thu 07:03:00 AM -19.0060 -47.4183 351° North  Level Estimated
Thu 07:04:00 AM -18.9188 -47.4323 351° North  Level Estimated
Thu 07:05:00 AM -18.8315 -47.4462 351° North  Level Estimated
Thu 07:06:00 AM -18.7443 -47.4602 351° North  Level Estimated
Thu 07:07:00 AM -18.6571 -47.4741 351° North  Level Estimated
Thu 07:08:00 AM -18.5699 -47.4880 351° North  Level Estimated
Thu 07:09:00 AM -18.4827 -47.5019 351° North  Level Estimated
Thu 07:10:00 AM -18.3954 -47.5157 351° North  Level Estimated
Thu 07:11:00 AM -18.3082 -47.5296 351° North  Level Estimated
Thu 07:12:00 AM -18.2210 -47.5434 351° North  Level Estimated
Thu 07:13:00 AM -18.1338 -47.5573 351° North  Level Estimated
Thu 07:14:00 AM -18.0466 -47.5711 351° North  Level Estimated
Thu 07:15:00 AM -17.9593 -47.5849 351° North  Level Estimated
Thu 07:16:00 AM -17.8721 -47.5987 351° North  Level Estimated
Thu 07:17:00 AM -17.7849 -47.6124 351° North  Level Estimated
Thu 07:18:00 AM -17.6976 -47.6262 351° North  Level Estimated
Thu 07:19:00 AM -17.6104 -47.6399 351° North  Level Estimated
Thu 07:20:00 AM -17.5232 -47.6537 351° North  Level Estimated
Thu 07:21:00 AM -17.4359 -47.6674 351° North  Level Estimated
Thu 07:22:00 AM -17.3487 -47.6811 351° North  Level Estimated
Thu 07:23:00 AM -17.2615 -47.6948 351° North  Level Estimated
Thu 07:24:00 AM -17.1742 -47.7085 351° North  Level Estimated
Thu 07:25:00 AM -17.0870 -47.7221 351° North  Level Estimated
Thu 07:26:00 AM -16.9998 -47.7358 351° North  Level Estimated
Thu 07:27:00 AM -16.9125 -47.7494 351° North  Level Estimated
Thu 07:28:00 AM -16.8253 -47.7631 351° North  Level Estimated
Thu 07:29:00 AM -16.7381 -47.7767 351° North  Level Estimated
Thu 07:30:00 AM -16.6508 -47.7903 352° North  Level Estimated
Thu 07:31:00 AM -16.5636 -47.8039 352° North  Level Estimated
Thu 07:32:00 AM -16.4763 -47.8175 352° North  Level Estimated
Thu 07:33:00 AM -16.3891 -47.8310 352° North  Level Estimated
Thu 07:34:00 AM -16.3018 -47.8446 352° North  Level Estimated
Thu 07:35:00 AM -16.2146 -47.8581 352° North  Level Estimated
Thu 07:36:00 AM -16.1274 -47.8717 352° North  Level Estimated
Thu 07:37:00 AM -16.0401 -47.8852 352° North  Level Estimated
Thu 07:38:00 AM -15.9529 -47.8987 352° North  Level Estimated
Thu 07:39:00 AM -15.8656 -47.9122 352° North  Level Estimated
Thu 07:40:00 AM -15.8626 -47.9127 352° North  Level Estimated
Thu 07:41:00 AM -15.8626 -47.9127 128° Southeast  Level Estimated
Thu 07:42:00 AM -15.8626 -47.9127 128° Southeast  Level Estimated
Thu 07:43:00 AM -15.8626 -47.9127 128° Southeast  Level Estimated
Thu 07:44:00 AM -15.8626 -47.9127 128° Southeast  Level Estimated
Thu 07:45:00 AM -15.8626 -47.9127 128° Southeast  Level Estimated
Thu 07:46:00 AM -15.8626 -47.9127 128° Southeast  Level Estimated
Thu 07:47:00 AM -15.8626 -47.9127 128° Southeast  Level Estimated
Thu 07:48:00 AM -15.8626 -47.9127 128° Southeast  Level Estimated
Thu 07:49:00 AM -15.8626 -47.9127 128° Southeast  Level Estimated
Thu 07:50:00 AM -15.8626 -47.9127 128° Southeast  Level Estimated
Thu 07:51:00 AM -15.8626 -47.9127 128° Southeast  Level Estimated

Login

Don't have an account? Register now (free) for customized features, flight alerts, and more!